createdAt,value
2023-02-11T00:00:11.866Z,24.80
2023-02-11T00:02:46.048Z,24.60
2023-02-11T00:05:18.268Z,29.50
2023-02-11T00:07:49.948Z,22.10
2023-02-11T00:10:20.560Z,26.00
2023-02-11T00:12:49.568Z,24.30
2023-02-11T00:15:21.829Z,28.30
2023-02-11T00:17:51.017Z,27.10
2023-02-11T00:20:23.155Z,26.50
2023-02-11T00:22:53.030Z,26.00
2023-02-11T00:25:22.105Z,23.50
2023-02-11T00:27:54.225Z,30.00
2023-02-11T00:30:23.370Z,29.00
2023-02-11T00:32:52.325Z,27.90
2023-02-11T00:35:21.654Z,25.90
2023-02-11T00:37:54.538Z,25.80
2023-02-11T00:40:24.866Z,24.90
2023-02-11T00:42:53.825Z,28.40
2023-02-11T00:45:25.924Z,24.00
2023-02-11T00:47:57.686Z,25.80
2023-02-11T00:50:26.514Z,23.70
2023-02-11T00:52:57.960Z,27.60
2023-02-11T00:55:27.317Z,26.60
2023-02-11T00:57:59.761Z,27.00
2023-02-11T01:00:29.101Z,30.10
2023-02-11T01:03:00.306Z,23.20
2023-02-11T01:05:30.866Z,28.40
2023-02-11T01:08:01.964Z,34.40
2023-02-11T01:10:34.645Z,25.00
2023-02-11T01:13:05.754Z,26.20
2023-02-11T01:15:34.697Z,31.90
2023-02-11T01:18:06.211Z,27.50
2023-02-11T01:20:35.434Z,30.10
2023-02-11T01:23:04.506Z,28.30
2023-02-11T01:28:13.033Z,24.10
2023-02-11T01:30:42.540Z,26.30
2023-02-11T01:33:12.389Z,28.90
2023-02-11T01:35:43.360Z,26.20
2023-02-11T01:38:21.582Z,31.00
2023-02-11T01:41:03.288Z,29.60
2023-02-11T01:43:35.625Z,27.20
2023-02-11T01:46:05.841Z,27.00
2023-02-11T01:48:37.712Z,27.00
2023-02-11T01:51:11.933Z,30.80
2023-02-11T01:54:01.998Z,34.40
2023-02-11T01:56:53.815Z,33.70
2023-02-11T01:59:26.306Z,29.40
2023-02-11T02:01:58.443Z,29.30
2023-02-11T02:04:32.031Z,30.70
2023-02-11T02:07:09.708Z,31.30
2023-02-11T02:09:42.480Z,33.90
2023-02-11T02:12:11.606Z,29.90
2023-02-11T02:14:42.307Z,29.90
2023-02-11T02:17:21.807Z,31.70
2023-02-11T02:20:11.520Z,33.80
2023-02-11T02:22:54.131Z,30.20
2023-02-11T02:25:44.745Z,33.00
2023-02-11T02:28:37.822Z,30.00
2023-02-11T02:31:27.817Z,31.30
2023-02-11T02:34:15.101Z,27.00
2023-02-11T02:36:58.648Z,31.50
2023-02-11T02:39:29.769Z,29.70
2023-02-11T02:41:58.881Z,27.30
2023-02-11T02:44:29.661Z,31.20
2023-02-11T02:46:59.832Z,28.40
2023-02-11T02:49:28.863Z,29.30
2023-02-11T02:52:19.584Z,27.80
2023-02-11T02:55:06.864Z,31.60
2023-02-11T02:57:48.964Z,32.10
2023-02-11T03:00:32.447Z,31.40
2023-02-11T03:03:18.908Z,30.40
2023-02-11T03:05:55.848Z,32.60
2023-02-11T03:08:38.380Z,29.70
2023-02-11T03:11:07.752Z,31.40
2023-02-11T03:13:39.723Z,35.10
2023-02-11T03:16:22.470Z,32.30
2023-02-11T03:18:57.805Z,26.10
2023-02-11T03:21:27.130Z,32.50
2023-02-11T03:24:02.746Z,32.00
2023-02-11T03:26:41.433Z,32.70
2023-02-11T03:29:18.290Z,31.70
2023-02-11T03:32:19.040Z,32.80
2023-02-11T03:35:01.955Z,29.00
2023-02-11T03:37:41.289Z,35.10
2023-02-11T03:40:16.523Z,28.80
2023-02-11T03:42:50.186Z,34.60
2023-02-11T03:45:28.382Z,28.00
2023-02-11T03:48:21.643Z,31.50
2023-02-11T03:50:50.967Z,28.80
2023-02-11T03:53:22.278Z,31.50
2023-02-11T03:55:53.079Z,33.10
2023-02-11T03:58:22.284Z,36.70
2023-02-11T04:00:51.936Z,28.80
2023-02-11T04:03:21.373Z,36.70
2023-02-11T04:05:50.892Z,28.90
2023-02-11T04:08:23.045Z,34.90
2023-02-11T04:10:53.333Z,33.70
2023-02-11T04:13:24.586Z,29.50
2023-02-11T04:15:54.201Z,28.90
2023-02-11T04:18:23.508Z,29.50
2023-02-11T04:20:52.905Z,36.20
2023-02-11T04:23:23.516Z,30.40
2023-02-11T04:25:53.080Z,31.10
2023-02-11T04:28:27.452Z,31.90
2023-02-11T04:30:57.008Z,32.50
2023-02-11T04:33:28.859Z,32.20
2023-02-11T04:35:59.566Z,32.30
2023-02-11T04:41:00.179Z,31.00
2023-02-11T04:43:35.022Z,33.40
2023-02-11T04:46:04.612Z,29.90
2023-02-11T04:48:36.408Z,30.20
2023-02-11T04:51:06.108Z,32.50
2023-02-11T04:53:35.307Z,33.10
2023-02-11T04:56:05.287Z,31.50
2023-02-11T04:58:35.847Z,30.50
2023-02-11T05:01:09.275Z,30.10
2023-02-11T05:03:39.254Z,30.00
2023-02-11T05:06:11.214Z,31.00
2023-02-11T05:08:44.463Z,31.20
2023-02-11T05:11:19.422Z,32.80
2023-02-11T05:13:49.161Z,33.90
2023-02-11T05:16:23.222Z,28.30
2023-02-11T05:18:56.255Z,33.60
2023-02-11T05:21:29.355Z,34.20
2023-02-11T05:23:59.178Z,33.50
2023-02-11T05:26:34.074Z,34.90
2023-02-11T05:29:03.716Z,26.80
2023-02-11T05:31:34.253Z,31.20
2023-02-11T05:34:05.585Z,28.00
2023-02-11T05:36:35.396Z,31.20
2023-02-11T05:39:05.800Z,34.30
2023-02-11T05:41:37.109Z,34.30
2023-02-11T05:44:08.300Z,37.80
2023-02-11T05:46:39.629Z,32.40
2023-02-11T05:49:09.971Z,35.00
2023-02-11T05:51:39.159Z,36.60
2023-02-11T05:54:08.523Z,35.10
2023-02-11T05:56:38.938Z,38.90
2023-02-11T05:59:08.228Z,33.20
2023-02-11T06:01:40.987Z,33.10
2023-02-11T06:04:10.700Z,34.70
2023-02-11T06:06:40.116Z,33.90
2023-02-11T06:09:13.148Z,27.70
2023-02-11T06:11:42.803Z,40.70
2023-02-11T06:14:15.245Z,46.50
2023-02-11T06:16:46.105Z,46.10
2023-02-11T06:19:16.025Z,41.30
2023-02-11T06:21:46.564Z,41.50
2023-02-11T06:24:47.699Z,42.70
2023-02-11T06:27:14.498Z,40.50
2023-02-11T06:29:45.189Z,26.90
2023-02-11T06:32:37.001Z,35.70
2023-02-11T06:35:05.967Z,31.80
2023-02-11T06:37:37.166Z,38.40
2023-02-11T06:40:09.829Z,41.20
2023-02-11T06:42:39.949Z,40.40
2023-02-11T06:45:11.325Z,39.00
2023-02-11T06:47:42.692Z,38.00
2023-02-11T06:50:14.077Z,37.60
2023-02-11T06:55:14.658Z,31.90
2023-02-11T06:57:48.051Z,38.70
2023-02-11T07:00:18.380Z,38.60
2023-02-11T07:02:49.168Z,39.50
2023-02-11T07:05:19.910Z,40.60
2023-02-11T07:07:49.313Z,38.40
2023-02-11T07:10:23.182Z,36.60
2023-02-11T07:12:57.002Z,33.80
2023-02-11T07:15:28.223Z,35.20
2023-02-11T07:17:57.581Z,37.90
2023-02-11T07:20:27.544Z,34.50
2023-02-11T07:22:59.272Z,34.90
2023-02-11T07:25:28.328Z,27.90
2023-02-11T07:27:58.549Z,39.10
2023-02-11T07:30:28.572Z,35.70
2023-02-11T07:32:57.589Z,35.90
2023-02-11T07:35:27.283Z,31.70
2023-02-11T07:37:56.906Z,36.60
2023-02-11T07:40:26.910Z,33.80
2023-02-11T07:42:59.047Z,30.90
2023-02-11T07:45:28.682Z,37.40
2023-02-11T07:47:58.048Z,31.90
2023-02-11T07:50:27.422Z,35.80
2023-02-11T07:52:57.408Z,37.10
2023-02-11T07:55:27.269Z,37.60
2023-02-11T07:57:57.967Z,38.40
2023-02-11T08:03:20.466Z,35.00
2023-02-11T08:05:57.555Z,33.50
2023-02-11T08:08:28.446Z,36.00
2023-02-11T08:10:57.899Z,39.60
2023-02-11T08:13:29.707Z,38.30
2023-02-11T08:16:11.215Z,29.10
2023-02-11T08:18:41.705Z,38.00
2023-02-11T08:21:12.745Z,41.00
2023-02-11T08:23:48.303Z,34.20
2023-02-11T08:26:26.825Z,38.00
2023-02-11T08:28:59.905Z,34.40
2023-02-11T08:31:39.564Z,32.50
2023-02-11T08:34:11.400Z,34.20
2023-02-11T08:36:41.964Z,42.20
2023-02-11T08:39:22.343Z,40.30
2023-02-11T08:41:53.860Z,43.70
2023-02-11T08:44:25.754Z,40.20
2023-02-11T08:46:54.791Z,38.00
2023-02-11T08:49:24.795Z,42.20
2023-02-11T08:51:59.282Z,40.10
2023-02-11T08:54:34.383Z,38.20
2023-02-11T08:57:04.312Z,54.90
2023-02-11T08:59:35.151Z,42.30
2023-02-11T09:02:04.417Z,49.20
2023-02-11T09:04:34.056Z,45.20
2023-02-11T09:07:06.306Z,38.70
2023-02-11T09:09:37.356Z,44.70
2023-02-11T09:12:11.821Z,41.30
2023-02-11T09:14:45.780Z,40.10
2023-02-11T09:17:14.889Z,43.90
2023-02-11T09:19:47.037Z,43.60
2023-02-11T09:22:16.348Z,34.10
2023-02-11T09:24:48.207Z,38.60
2023-02-11T09:27:23.246Z,44.70
2023-02-11T09:29:53.979Z,45.70
2023-02-11T09:35:09.061Z,43.00
2023-02-11T09:37:39.814Z,49.10
2023-02-11T09:40:12.079Z,39.70
2023-02-11T09:43:06.007Z,48.10
2023-02-11T09:45:36.754Z,44.00
2023-02-11T09:48:14.005Z,48.50
2023-02-11T09:50:58.869Z,42.90
2023-02-11T09:53:36.207Z,45.70
2023-02-11T09:56:15.945Z,41.10
2023-02-11T09:58:49.639Z,43.20
2023-02-11T10:01:37.359Z,35.30
2023-02-11T10:04:26.528Z,40.50
2023-02-11T10:07:24.538Z,38.90
2023-02-11T10:10:22.627Z,39.50
2023-02-11T10:13:01.918Z,42.50
2023-02-11T10:16:08.093Z,46.80
2023-02-11T10:18:47.657Z,48.10
2023-02-11T10:21:21.219Z,39.30
2023-02-11T10:23:52.892Z,34.40
2023-02-11T10:26:22.469Z,42.60
2023-02-11T10:28:58.645Z,38.90
2023-02-11T10:31:39.509Z,40.60
2023-02-11T10:34:13.635Z,43.90
2023-02-11T10:36:45.361Z,38.20
2023-02-11T10:39:28.881Z,40.80
2023-02-11T10:42:15.061Z,13.40
2023-02-11T10:45:06.366Z,37.60
2023-02-11T10:47:38.219Z,40.60
2023-02-11T10:50:37.578Z,40.00
2023-02-11T10:53:17.564Z,43.80
2023-02-11T10:58:29.601Z,44.70
2023-02-11T11:01:00.392Z,39.40
2023-02-11T11:03:33.124Z,43.30
2023-02-11T11:06:10.856Z,38.60
2023-02-11T11:08:49.889Z,42.80
2023-02-11T11:11:24.996Z,39.90
2023-02-11T11:14:04.514Z,42.80
2023-02-11T11:16:36.377Z,41.10
2023-02-11T11:19:09.711Z,45.50
2023-02-11T11:21:47.287Z,39.50
2023-02-11T11:24:32.832Z,47.10
2023-02-11T11:27:06.569Z,44.70
2023-02-11T11:29:40.872Z,45.60
2023-02-11T11:32:23.520Z,45.70
2023-02-11T11:34:56.393Z,36.60
2023-02-11T11:37:28.170Z,44.30
2023-02-11T11:40:08.652Z,40.30
2023-02-11T11:42:39.816Z,41.10
2023-02-11T11:45:17.008Z,41.80
2023-02-11T11:48:06.556Z,36.50
2023-02-11T11:50:54.583Z,40.20
2023-02-11T11:53:53.648Z,44.00
2023-02-11T11:56:38.295Z,39.70
2023-02-11T11:59:14.273Z,43.50
2023-02-11T12:02:16.215Z,41.00
2023-02-11T12:04:56.305Z,38.10
2023-02-11T12:07:51.455Z,38.40
2023-02-11T12:10:47.233Z,42.10
2023-02-11T12:13:54.897Z,37.50
2023-02-11T12:16:47.882Z,35.20
2023-02-11T12:19:46.741Z,38.00
2023-02-11T12:22:41.466Z,38.80
2023-02-11T12:25:22.097Z,39.60
2023-02-11T12:28:16.163Z,34.20
2023-02-11T12:31:17.784Z,36.80
2023-02-11T12:34:03.164Z,36.90
2023-02-11T12:37:00.229Z,36.90
2023-02-11T12:39:36.493Z,34.00
2023-02-11T12:42:38.085Z,33.90
2023-02-11T12:48:16.706Z,35.70
2023-02-11T12:50:49.366Z,37.20
2023-02-11T12:53:28.314Z,33.20
2023-02-11T12:56:04.285Z,36.30
2023-02-11T12:58:44.842Z,36.80
2023-02-11T13:01:23.472Z,36.20
2023-02-11T13:04:07.659Z,34.40
2023-02-11T13:07:04.263Z,33.80
2023-02-11T13:09:39.120Z,33.10
2023-02-11T13:12:29.379Z,31.80
2023-02-11T13:15:02.428Z,39.20
2023-02-11T13:18:06.311Z,51.60
2023-02-11T13:20:44.710Z,35.20
2023-02-11T13:23:42.885Z,38.30
2023-02-11T13:26:41.419Z,38.60
2023-02-11T13:29:17.656Z,37.40
2023-02-11T13:32:07.759Z,47.70
2023-02-11T13:34:45.305Z,52.40
2023-02-11T13:37:27.270Z,36.20
2023-02-11T13:40:00.462Z,43.10
2023-02-11T13:42:32.134Z,80.80
2023-02-11T13:45:02.381Z,51.00
2023-02-11T13:47:33.704Z,79.20
2023-02-11T13:50:04.624Z,56.60
2023-02-11T13:57:41.187Z,46.60
2023-02-11T14:00:44.118Z,43.50
2023-02-11T14:03:41.559Z,35.10
2023-02-11T14:06:33.925Z,33.80
2023-02-11T14:09:11.554Z,31.10
2023-02-11T14:11:42.396Z,31.30
2023-02-11T14:14:36.082Z,33.90
2023-02-11T14:17:09.879Z,28.60
2023-02-11T14:19:44.358Z,32.00
2023-02-11T14:22:32.718Z,27.40
2023-02-11T14:25:05.026Z,28.20
2023-02-11T14:27:35.180Z,22.80
2023-02-11T14:30:17.480Z,24.20
2023-02-11T14:33:18.460Z,25.70
2023-02-11T14:36:14.432Z,23.70
2023-02-11T14:39:44.908Z,22.20
2023-02-11T14:42:20.729Z,24.50
2023-02-11T14:44:51.321Z,19.90
2023-02-11T14:47:30.642Z,23.70
2023-02-11T14:50:01.765Z,24.80
2023-02-11T14:52:33.900Z,21.70
2023-02-11T14:55:24.559Z,24.80
2023-02-11T14:58:07.428Z,21.10
2023-02-11T15:00:37.404Z,23.10
2023-02-11T15:03:10.090Z,21.00
2023-02-11T15:05:42.242Z,22.60
2023-02-11T15:08:14.770Z,23.60
2023-02-11T15:10:46.049Z,21.50
2023-02-11T15:13:32.060Z,20.60
2023-02-11T15:16:10.721Z,22.80
2023-02-11T15:18:42.546Z,22.10
2023-02-11T15:21:13.348Z,21.30
2023-02-11T15:23:45.557Z,35.40
2023-02-11T15:26:23.862Z,29.40
2023-02-11T15:28:57.081Z,29.40
2023-02-11T15:31:27.808Z,24.20
2023-02-11T15:34:07.935Z,23.80
2023-02-11T15:36:39.699Z,19.70
2023-02-11T15:39:41.706Z,22.40
2023-02-11T15:42:40.858Z,23.00
2023-02-11T15:45:18.795Z,17.80
2023-02-11T15:47:52.125Z,21.40
2023-02-11T15:50:26.448Z,19.60
2023-02-11T15:52:58.992Z,19.40
2023-02-11T19:17:42.634Z,27.20
2023-02-11T19:20:12.709Z,25.50
2023-02-11T19:22:42.485Z,27.30
2023-02-11T19:25:13.394Z,23.70
2023-02-11T19:27:44.072Z,27.20
2023-02-11T19:30:16.321Z,26.80
2023-02-11T19:32:47.794Z,25.70
2023-02-11T19:35:17.648Z,26.90
2023-02-11T19:37:47.532Z,25.80
2023-02-11T19:40:25.945Z,22.80
2023-02-11T19:43:00.173Z,27.90
2023-02-11T19:45:30.203Z,20.00
2023-02-11T19:47:59.941Z,28.20
2023-02-11T19:50:29.919Z,27.10
2023-02-11T19:52:59.671Z,22.40
2023-02-11T19:55:29.955Z,23.30
2023-02-11T19:57:59.313Z,26.00
2023-02-11T20:00:29.729Z,28.50
2023-02-11T20:03:01.297Z,25.60
2023-02-11T20:05:36.091Z,26.30
2023-02-11T20:08:07.224Z,23.50
2023-02-11T20:13:10.232Z,28.60
2023-02-11T20:15:42.517Z,29.70
2023-02-11T20:18:15.372Z,29.50
2023-02-11T20:20:45.688Z,30.90
2023-02-11T20:23:15.754Z,28.80
2023-02-11T20:25:48.561Z,30.90
2023-02-11T20:28:19.238Z,30.80
2023-02-11T20:33:31.981Z,33.60
2023-02-11T20:36:04.767Z,19.30
2023-02-11T20:38:36.859Z,30.80
2023-02-11T20:41:10.197Z,33.90
2023-02-11T20:43:40.648Z,31.00
2023-02-11T20:46:16.046Z,29.90
2023-02-11T20:48:46.096Z,29.60
2023-02-11T20:53:50.086Z,31.90
2023-02-11T20:56:22.861Z,30.50
2023-02-11T20:58:54.350Z,30.20
2023-02-11T21:01:25.794Z,34.30
2023-02-11T21:04:04.269Z,27.90
2023-02-11T21:06:42.233Z,30.70
2023-02-11T21:09:16.520Z,31.20
2023-02-11T21:11:54.949Z,30.90
2023-02-11T21:14:25.343Z,32.40
2023-02-11T21:16:58.071Z,31.10
2023-02-11T21:19:28.252Z,28.70
2023-02-11T21:22:01.265Z,30.30
2023-02-11T21:24:34.035Z,30.50
2023-02-11T21:27:08.460Z,29.90
2023-02-11T21:29:52.676Z,28.40
2023-02-11T21:32:23.858Z,30.90
2023-02-11T21:34:55.968Z,31.40
2023-02-11T21:37:25.583Z,33.00
2023-02-11T21:39:55.347Z,31.30
2023-02-11T21:42:24.321Z,31.30
2023-02-11T21:44:56.299Z,28.70
2023-02-11T21:47:26.239Z,30.40
2023-02-11T21:49:57.751Z,27.20
2023-02-11T21:52:31.691Z,30.80
2023-02-11T21:55:02.086Z,32.40
2023-02-11T21:57:31.635Z,30.30
2023-02-11T22:00:01.680Z,33.30
2023-02-11T22:02:31.120Z,31.50
2023-02-11T22:05:00.584Z,31.60
2023-02-11T22:07:30.124Z,32.60
2023-02-11T22:10:07.315Z,30.00
2023-02-11T22:12:37.945Z,26.10
2023-02-11T22:15:08.054Z,27.90
2023-02-11T22:17:37.496Z,30.50
2023-02-11T22:20:09.024Z,31.20
2023-02-11T22:22:40.625Z,30.10
2023-02-11T22:25:10.196Z,22.40
2023-02-11T22:27:41.334Z,28.70
2023-02-11T22:30:11.600Z,34.20
2023-02-11T22:32:44.119Z,26.10
2023-02-11T22:35:13.498Z,29.90
2023-02-11T22:37:45.251Z,33.10
2023-02-11T22:40:14.776Z,24.90
2023-02-11T22:42:46.535Z,31.40
2023-02-11T22:45:16.163Z,28.80
2023-02-11T22:47:46.347Z,27.60
2023-02-11T22:50:16.993Z,27.30
2023-02-11T22:52:48.664Z,27.40
2023-02-11T22:55:18.064Z,29.60
2023-02-11T22:57:47.656Z,29.80
2023-02-11T23:00:19.274Z,27.70
2023-02-11T23:02:48.481Z,23.40
2023-02-11T23:05:20.280Z,26.40
2023-02-11T23:07:52.147Z,25.70
2023-02-11T23:10:22.136Z,27.90
2023-02-11T23:12:51.908Z,24.30
2023-02-11T23:15:22.049Z,26.90
2023-02-11T23:17:53.144Z,31.30
2023-02-11T23:20:23.276Z,26.70
2023-02-11T23:22:52.954Z,26.30
2023-02-11T23:25:23.096Z,28.40
2023-02-11T23:27:56.203Z,27.60
2023-02-11T23:30:26.685Z,27.90
2023-02-11T23:32:56.539Z,27.30
2023-02-11T23:35:26.325Z,24.70
2023-02-11T23:37:57.425Z,27.90
2023-02-11T23:40:27.223Z,23.30
2023-02-11T23:42:58.667Z,25.60
2023-02-11T23:45:29.067Z,26.40
2023-02-11T23:48:00.161Z,22.80
2023-02-11T23:50:31.342Z,24.00
2023-02-11T23:53:00.882Z,23.70
2023-02-11T23:55:40.587Z,23.80
2023-02-11T23:58:11.625Z,20.20
